Time;durP1;ratioP1;P1;durP2;ratioP2;P2;SDS_P1;SDS_P2;PMS_P1;PMS_P2;Temp;Humidity;BMP_temperature;BMP_pressure;BME280_temperature;BME280_humidity;BME280_pressure;Samples;Min_cycle;Max_cycle;Signal;HPM_P1;HPM_P2
2022/09/08 00:00:44;;;;;;;;;;;18.80;99.90;;;;;;4957983;28;19914;-85
2022/09/08 00:03:10;;;;;;;;;;;18.80;99.90;;;;;;4972976;28;19985;-85
2022/09/08 00:05:40;;;;;;;;;;;18.80;99.90;;;;;;4969110;28;20336;-86
2022/09/08 00:08:05;;;;;;;;;;;18.70;99.90;;;;;;4958564;28;20302;-85
2022/09/08 00:10:31;;;;;;;;;;;18.80;99.90;;;;;;4958290;28;19977;-85
2022/09/08 00:12:57;;;;;;;;;;;18.70;99.90;;;;;;4972030;28;19914;-85
2022/09/08 00:15:23;;;;;;;;;;;18.70;99.90;;;;;;4972528;28;19941;-84
2022/09/08 00:17:48;;;;;;;;;;;18.70;99.90;;;;;;4950561;28;20020;-85
2022/09/08 00:20:14;;;;;;;;;;;18.80;99.90;;;;;;4968973;28;20436;-84
2022/09/08 00:22:40;;;;;;;;;;;18.70;99.90;;;;;;4954914;28;20503;-82
2022/09/08 00:25:06;;;;;;;;;;;18.80;99.90;;;;;;4974990;28;19965;-85
2022/09/08 00:27:32;;;;;;;;;;;18.90;99.90;;;;;;4956124;28;19949;-85
2022/09/08 00:29:57;;;;;;;;;;;18.90;99.90;;;;;;4955164;28;19910;-82
2022/09/08 00:32:23;;;;;;;;;;;18.90;99.90;;;;;;4956591;28;19960;-86
2022/09/08 00:34:50;;;;;;;;;;;18.80;99.90;;;;;;4972137;28;19914;-83
2022/09/08 00:37:16;;;;;;;;;;;18.80;99.90;;;;;;4971741;28;20353;-85
2022/09/08 00:39:41;;;;;;;;;;;18.80;99.90;;;;;;4957087;28;19965;-84
2022/09/08 00:42:07;;;;;;;;;;;18.80;99.90;;;;;;4963172;28;20335;-84
2022/09/08 00:44:32;;;;;;;;;;;18.70;99.90;;;;;;4966085;28;19910;-84
2022/09/08 00:46:58;;;;;;;;;;;18.70;99.90;;;;;;4975406;28;19961;-83
2022/09/08 00:49:24;;;;;;;;;;;;;;;;;;4964178;28;19925;-83
2022/09/08 00:51:51;;;;;;;;;;;18.80;99.90;;;;;;4982411;28;19914;-84
2022/09/08 00:54:17;;;;;;;;;;;18.70;99.90;;;;;;4984624;28;19914;-85
2022/09/08 00:56:44;;;;;;;;;;;18.70;99.90;;;;;;4986186;28;19928;-84
2022/09/08 00:59:10;;;;;;;;;;;18.70;99.90;;;;;;4958630;28;19914;-82
2022/09/08 01:01:36;;;;;;;;;;;18.70;99.90;;;;;;4971915;28;20324;-83
2022/09/08 01:04:03;;;;;;;;;;;18.70;99.90;;;;;;4952609;28;20006;-83
2022/09/08 01:12:45;;;;;;;;;;;18.70;99.90;;;;;;4969162;28;19960;-84
2022/09/08 01:15:13;;;;;;;;;;;18.70;99.90;;;;;;4969953;28;19981;-83
2022/09/08 01:17:39;;;;;;;;;;;18.80;99.90;;;;;;4956644;28;19949;-84
2022/09/08 01:20:07;;;;;;;;;;;18.60;99.90;;;;;;4969598;28;19921;-83
2022/09/08 01:22:45;;;;;;;;;;;18.60;99.90;;;;;;4953581;28;19910;-83
2022/09/08 01:25:22;;;;;;;;;;;18.60;99.90;;;;;;4968731;28;19910;-82
2022/09/08 01:27:49;;;;;;;;;;;18.60;99.90;;;;;;4957047;28;19914;-84
2022/09/08 01:30:15;;;;;;;;;;;18.60;99.90;;;;;;4974370;28;19997;-85
2022/09/08 01:32:42;;;;;;;;;;;18.50;99.90;;;;;;4951712;28;20000;-83
2022/09/08 01:35:08;;;;;;;;;;;18.50;99.90;;;;;;4977175;28;19910;-83
2022/09/08 01:37:34;;;;;;;;;;;18.50;99.90;;;;;;4957695;28;19918;-82
2022/09/08 01:39:59;;;;;;;;;;;19.80;99.90;;;;;;4969522;28;19981;-84
2022/09/08 01:42:25;;;;;;;;;;;18.50;99.90;;;;;;4958699;28;19913;-84
2022/09/08 01:44:51;;;;;;;;;;;18.50;99.90;;;;;;4974034;28;19921;-84
2022/09/08 01:47:16;;;;;;;;;;;18.50;99.90;;;;;;4957844;28;19957;-85
2022/09/08 01:49:42;;;;;;;;;;;18.50;99.90;;;;;;4954435;28;20034;-84
2022/09/08 01:52:08;;;;;;;;;;;18.40;99.90;;;;;;4960144;28;19921;-85
2022/09/08 01:54:34;;;;;;;;;;;18.50;99.90;;;;;;4957344;28;20017;-84
2022/09/08 01:57:00;;;;;;;;;;;20.50;99.90;;;;;;4957783;28;19914;-83
2022/09/08 01:59:25;;;;;;;;;;;18.50;99.90;;;;;;4967918;28;19926;-81
2022/09/08 02:01:51;;;;;;;;;;;18.50;99.90;;;;;;4956846;28;19929;-83
2022/09/08 02:04:16;;;;;;;;;;;18.40;99.90;;;;;;4957524;28;19913;-83
2022/09/08 02:06:42;;;;;;;;;;;18.30;99.90;;;;;;4957212;28;20382;-84
2022/09/08 02:09:08;;;;;;;;;;;18.30;99.90;;;;;;4955596;28;19918;-85
2022/09/08 02:11:33;;;;;;;;;;;18.40;99.90;;;;;;4984047;28;19925;-85
2022/09/08 02:14:00;;;;;;;;;;;18.30;99.90;;;;;;4978899;28;19914;-85
2022/09/08 02:16:25;;;;;;;;;;;18.30;99.90;;;;;;4972363;28;19997;-84
2022/09/08 02:18:55;;;;;;;;;;;18.20;99.90;;;;;;4975376;28;19915;-84
2022/09/08 02:21:21;;;;;;;;;;;18.30;99.90;;;;;;4971615;28;19910;-85
2022/09/08 02:23:48;;;;;;;;;;;18.20;99.90;;;;;;4989242;28;19938;-86
2022/09/08 02:26:24;;;;;;;;;;;18.20;99.90;;;;;;4959328;28;19914;-85
2022/09/08 02:28:53;;;;;;;;;;;18.20;99.90;;;;;;4978416;28;19977;-84
2022/09/08 02:31:19;;;;;;;;;;;18.10;99.90;;;;;;4968964;28;20401;-84
2022/09/08 02:33:45;;;;;;;;;;;18.00;99.90;;;;;;4975688;28;20379;-85
2022/09/08 02:36:11;;;;;;;;;;;18.00;99.90;;;;;;4957830;28;19980;-83
2022/09/08 02:38:37;;;;;;;;;;;18.00;99.90;;;;;;4975916;28;19933;-85
2022/09/08 02:41:02;;;;;;;;;;;18.00;99.90;;;;;;4955151;28;19938;-84
2022/09/08 02:43:29;;;;;;;;;;;17.90;99.90;;;;;;4977920;28;20375;-84
2022/09/08 02:45:54;;;;;;;;;;;17.90;99.90;;;;;;4971485;28;20279;-84
2022/09/08 02:48:20;;;;;;;;;;;17.80;99.90;;;;;;4972525;28;19918;-84
2022/09/08 02:50:45;;;;;;;;;;;17.70;99.90;;;;;;4967375;28;19914;-85
2022/09/08 02:53:11;;;;;;;;;;;17.70;99.90;;;;;;4979306;28;19914;-84
2022/09/08 02:55:40;;;;;;;;;;;17.70;99.90;;;;;;4952373;28;19917;-85
2022/09/08 02:58:07;;;;;;;;;;;17.80;99.90;;;;;;4979140;28;19914;-85
2022/09/08 03:00:33;;;;;;;;;;;17.80;99.90;;;;;;4953969;28;19918;-84
2022/09/08 03:02:59;;;;;;;;;;;17.80;99.90;;;;;;4960981;28;20013;-85
2022/09/08 03:05:24;;;;;;;;;;;17.70;99.90;;;;;;4956526;28;19914;-85
2022/09/08 03:07:50;;;;;;;;;;;17.80;99.90;;;;;;4973533;28;19913;-85
2022/09/08 03:10:16;;;;;;;;;;;17.80;99.90;;;;;;4972419;28;19910;-85
2022/09/08 03:12:41;;;;;;;;;;;17.70;99.90;;;;;;4973692;28;19921;-85
2022/09/08 03:15:07;;;;;;;;;;;17.80;99.90;;;;;;4971045;28;19925;-87
2022/09/08 03:17:33;;;;;;;;;;;17.80;99.90;;;;;;4978929;28;19921;-86
2022/09/08 03:19:58;;;;;;;;;;;17.90;99.90;;;;;;4991155;28;19911;-87
2022/09/08 03:22:24;;;;;;;;;;;17.80;99.90;;;;;;4990119;28;19925;-87
2022/09/08 03:24:49;;;;;;;;;;;17.80;99.90;;;;;;4974754;28;19910;-86
2022/09/08 03:27:15;;;;;;;;;;;17.70;99.90;;;;;;4970152;28;19922;-87
2022/09/08 03:29:40;;;;;;;;;;;17.70;99.90;;;;;;4988095;28;20045;-86
2022/09/08 03:32:06;;;;;;;;;;;17.70;99.90;;;;;;4993072;28;19917;-87
2022/09/08 03:34:31;;;;;;;;;;;17.70;99.90;;;;;;4991500;28;19902;-87
2022/09/08 03:36:57;;;;;;;;;;;17.60;99.90;;;;;;4978011;28;19902;-87
2022/09/08 03:39:23;;;;;;;;;;;17.60;99.90;;;;;;4976375;28;20154;-88
2022/09/08 03:41:48;;;;;;;;;;;17.50;99.90;;;;;;4980865;28;19904;-82
2022/09/08 03:44:14;;;;;;;;;;;17.50;99.90;;;;;;4986362;23;19930;-81
2022/09/08 03:46:39;;;;;;;;;;;17.50;99.90;;;;;;4961289;28;19945;-82
2022/09/08 03:49:05;;;;;;;;;;;17.50;99.90;;;;;;4947333;28;19918;-83
2022/09/08 03:51:30;;;;;;;;;;;17.40;99.90;;;;;;4947602;29;19914;-81
2022/09/08 03:56:41;;;;;;;;;;;17.20;99.90;;;;;;4964862;28;19934;-80
2022/09/08 03:59:08;;;;;;;;;;;17.20;99.90;;;;;;4957626;28;19918;-83
2022/09/08 04:01:34;;;;;;;;;;;17.10;99.90;;;;;;4949045;29;21354;-81
2022/09/08 04:03:59;;;;;;;;;;;17.10;99.90;;;;;;4956681;28;19974;-81
2022/09/08 04:06:25;;;;;;;;;;;17.10;99.90;;;;;;4954416;28;19905;-82
2022/09/08 04:08:50;;;;;;;;;;;17.10;99.90;;;;;;4950360;28;19986;-80
2022/09/08 04:11:16;;;;;;;;;;;17.00;99.90;;;;;;4946880;29;19914;-81
2022/09/08 04:13:41;;;;;;;;;;;17.00;99.90;;;;;;4948147;28;19921;-83
2022/09/08 04:16:07;;;;;;;;;;;16.90;99.90;;;;;;4966550;28;20008;-81
2022/09/08 04:18:33;;;;;;;;;;;16.90;99.90;;;;;;4947483;29;20349;-81
2022/09/08 04:20:59;;;;;;;;;;;16.80;99.90;;;;;;4959517;28;19910;-81
2022/09/08 04:23:26;;;;;;;;;;;16.90;99.90;;;;;;4947320;28;19911;-79
2022/09/08 04:25:55;;;;;;;;;;;16.90;99.90;;;;;;4947565;29;19929;-82
2022/09/08 04:28:21;;;;;;;;;;;16.90;99.90;;;;;;4961390;28;19914;-80
2022/09/08 04:30:46;;;;;;;;;;;16.80;99.90;;;;;;4940802;28;19913;-80
2022/09/08 04:33:12;;;;;;;;;;;16.70;99.90;;;;;;4943461;28;19914;-80
2022/09/08 04:35:37;;;;;;;;;;;16.70;99.90;;;;;;4956348;28;19938;-80
2022/09/08 04:38:03;;;;;;;;;;;16.80;99.90;;;;;;4958028;28;19942;-81
2022/09/08 04:40:28;;;;;;;;;;;16.70;99.90;;;;;;4956128;28;19931;-80
2022/09/08 04:42:54;;;;;;;;;;;16.80;99.90;;;;;;4959937;28;19924;-80
2022/09/08 04:45:19;;;;;;;;;;;16.80;99.90;;;;;;4959709;28;19923;-79
2022/09/08 04:47:45;;;;;;;;;;;16.90;99.90;;;;;;4962454;28;20387;-82
2022/09/08 04:50:10;;;;;;;;;;;16.90;99.90;;;;;;4955178;28;19962;-84
2022/09/08 04:52:36;;;;;;;;;;;16.90;99.90;;;;;;4939294;29;21751;-81
2022/09/08 04:55:02;;;;;;;;;;;16.80;99.90;;;;;;4960872;28;19938;-84
2022/09/08 04:57:28;;;;;;;;;;;16.80;99.90;;;;;;4957783;28;19968;-84
2022/09/08 04:59:54;;;;;;;;;;;16.80;99.90;;;;;;4959785;28;19911;-84
2022/09/08 05:02:19;;;;;;;;;;;16.80;99.90;;;;;;4968716;28;19939;-83
2022/09/08 05:04:45;;;;;;;;;;;16.80;99.90;;;;;;4951042;28;19899;-83
2022/09/08 05:07:10;;;;;;;;;;;16.80;99.90;;;;;;4953464;28;19918;-83
2022/09/08 05:09:36;;;;;;;;;;;16.80;99.90;;;;;;4954920;28;19898;-82
2022/09/08 05:12:01;;;;;;;;;;;16.80;99.90;;;;;;4961094;28;19921;-82
2022/09/08 05:14:27;;;;;;;;;;;16.80;99.90;;;;;;4943446;28;19917;-82
2022/09/08 05:16:52;;;;;;;;;;;16.80;99.90;;;;;;4959278;28;19924;-81
2022/09/08 05:19:18;;;;;;;;;;;16.80;99.90;;;;;;4950176;29;19930;-84
2022/09/08 05:21:44;;;;;;;;;;;;;;;;;;4963600;28;19934;-84
2022/09/08 05:24:09;;;;;;;;;;;16.80;99.90;;;;;;4973991;28;19906;-83
2022/09/08 05:26:35;;;;;;;;;;;16.80;99.90;;;;;;4960776;28;19930;-82
2022/09/08 05:29:03;;;;;;;;;;;16.90;99.90;;;;;;4955161;28;19925;-81
2022/09/08 05:31:29;;;;;;;;;;;16.90;99.90;;;;;;4943420;28;19974;-83
2022/09/08 05:33:58;;;;;;;;;;;16.90;99.90;;;;;;4950241;28;19950;-82
2022/09/08 05:36:25;;;;;;;;;;;16.90;99.90;;;;;;4958657;28;19918;-84
2022/09/08 05:38:51;;;;;;;;;;;17.00;99.90;;;;;;4940333;28;19915;-82
2022/09/08 05:41:17;;;;;;;;;;;16.90;99.90;;;;;;4952748;28;19914;-81
2022/09/08 05:43:43;;;;;;;;;;;16.90;99.90;;;;;;4964696;28;19968;-79
2022/09/08 05:46:09;;;;;;;;;;;16.90;99.90;;;;;;4945431;28;19917;-82
2022/09/08 05:48:35;;;;;;;;;;;16.90;99.90;;;;;;4960101;28;19937;-82
2022/09/08 05:51:00;;;;;;;;;;;17.50;99.90;;;;;;4954469;28;21151;-83
2022/09/08 05:53:27;;;;;;;;;;;17.00;99.90;;;;;;4942671;28;19973;-83
2022/09/08 05:56:00;;;;;;;;;;;17.00;99.90;;;;;;4962561;28;19934;-82
2022/09/08 05:58:29;;;;;;;;;;;17.00;99.90;;;;;;4962129;28;19922;-84
2022/09/08 06:00:59;;;;;;;;;;;17.00;99.90;;;;;;4943723;28;19921;-83
2022/09/08 06:03:25;;;;;;;;;;;;;;;;;;4962817;28;19914;-83
2022/09/08 06:05:50;;;;;;;;;;;17.00;99.90;;;;;;4962432;28;19910;-84
2022/09/08 06:08:16;;;;;;;;;;;16.90;99.90;;;;;;4947755;29;19968;-80
2022/09/08 06:10:42;;;;;;;;;;;17.00;99.90;;;;;;4949624;28;20118;-82
2022/09/08 06:13:07;;;;;;;;;;;17.00;99.90;;;;;;4946520;28;19918;-79
2022/09/08 06:15:33;;;;;;;;;;;17.00;99.90;;;;;;4941367;28;19922;-82
2022/09/08 06:18:01;;;;;;;;;;;17.00;99.90;;;;;;4940614;28;20009;-82
2022/09/08 06:20:27;;;;;;;;;;;17.00;99.90;;;;;;4957872;28;20375;-82
2022/09/08 06:22:52;;;;;;;;;;;17.00;99.90;;;;;;4968077;28;19915;-81
2022/09/08 06:25:18;;;;;;;;;;;17.00;99.90;;;;;;4944577;28;20406;-83
2022/09/08 06:27:52;;;;;;;;;;;17.10;99.90;;;;;;4963412;28;19925;-85
2022/09/08 06:30:18;;;;;;;;;;;17.00;99.90;;;;;;4958420;28;19914;-82
2022/09/08 06:32:48;;;;;;;;;;;17.10;99.90;;;;;;4963054;28;19925;-81
2022/09/08 06:35:19;;;;;;;;;;;17.10;99.90;;;;;;4961494;28;19918;-81
2022/09/08 06:37:56;;;;;;;;;;;17.00;99.90;;;;;;4962863;28;19925;-80
2022/09/08 06:40:32;;;;;;;;;;;17.10;99.90;;;;;;4946203;29;20565;-82
2022/09/08 06:42:57;;;;;;;;;;;17.10;99.90;;;;;;4930378;28;20016;-82
2022/09/08 06:45:28;;;;;;;;;;;17.10;99.90;;;;;;4961651;28;19910;-81
2022/09/08 06:48:06;;;;;;;;;;;17.10;99.90;;;;;;4959197;28;19914;-81
2022/09/08 06:50:33;;;;;;;;;;;17.20;99.90;;;;;;4945912;29;19910;-82
2022/09/08 06:53:01;;;;;;;;;;;17.30;99.90;;;;;;4939681;28;19914;-81
2022/09/08 06:55:30;;;;;;;;;;;17.30;99.90;;;;;;4940182;29;19937;-82
2022/09/08 06:57:59;;;;;;;;;;;17.30;99.90;;;;;;4958952;28;19918;-84
2022/09/08 07:00:28;;;;;;;;;;;17.40;99.90;;;;;;4948210;28;19941;-82
2022/09/08 07:03:26;;;;;;;;;;;17.50;99.90;;;;;;4953695;28;19919;-83
2022/09/08 07:06:01;;;;;;;;;;;17.60;99.90;;;;;;4933807;28;19966;-83
2022/09/08 07:08:30;;;;;;;;;;;17.60;99.90;;;;;;4940392;28;19914;-83
2022/09/08 07:11:07;;;;;;;;;;;17.80;99.90;;;;;;4954534;28;19918;-84
2022/09/08 07:13:41;;;;;;;;;;;17.80;99.90;;;;;;4958939;28;19989;-84
2022/09/08 07:16:13;;;;;;;;;;;17.90;99.90;;;;;;4959017;28;19921;-84
2022/09/08 07:18:49;;;;;;;;;;;17.90;99.90;;;;;;4956668;28;19922;-81
2022/09/08 07:21:27;;;;;;;;;;;17.90;99.90;;;;;;4959794;28;19917;-83
2022/09/08 07:23:53;;;;;;;;;;;17.80;99.90;;;;;;4962888;28;20365;-83
2022/09/08 07:26:24;;;;;;;;;;;17.90;99.90;;;;;;4945129;28;19918;-83
2022/09/08 07:28:51;;;;;;;;;;;17.90;99.90;;;;;;4961443;28;19956;-81
2022/09/08 07:31:21;;;;;;;;;;;17.90;99.90;;;;;;4955345;28;19918;-84
2022/09/08 07:33:49;;;;;;;;;;;17.90;99.90;;;;;;4958681;28;19910;-84
2022/09/08 07:36:27;;;;;;;;;;;18.10;99.90;;;;;;4946238;28;19998;-82
2022/09/08 07:39:02;;;;;;;;;;;17.90;99.90;;;;;;4946666;28;19918;-84
2022/09/08 07:41:37;;;;;;;;;;;18.00;99.90;;;;;;4969124;28;20004;-82
2022/09/08 07:44:09;;;;;;;;;;;18.00;99.90;;;;;;4945624;28;20008;-80
2022/09/08 07:46:53;;;;;;;;;;;17.90;99.90;;;;;;4963552;28;19997;-81
2022/09/08 07:49:28;;;;;;;;;;;18.00;99.90;;;;;;4948503;28;19914;-81
2022/09/08 07:51:54;;;;;;;;;;;18.20;99.90;;;;;;4938983;28;20005;-83
2022/09/08 07:54:22;;;;;;;;;;;18.10;99.90;;;;;;4944232;29;19941;-81
2022/09/08 07:57:01;;;;;;;;;;;18.20;99.90;;;;;;4958749;28;19914;-81
2022/09/08 07:59:41;;;;;;;;;;;18.10;99.90;;;;;;4960226;28;19929;-82
2022/09/08 08:02:25;;;;;;;;;;;18.20;99.90;;;;;;4968002;28;19910;-84
2022/09/08 08:05:00;;;;;;;;;;;18.10;99.90;;;;;;4956583;28;19918;-83
2022/09/08 08:07:48;;;;;;;;;;;18.10;99.90;;;;;;4953386;28;20435;-82
2022/09/08 08:10:19;;;;;;;;;;;18.20;99.90;;;;;;4958147;28;19962;-82
2022/09/08 08:13:09;;;;;;;;;;;18.40;99.90;;;;;;4946546;28;19925;-83
2022/09/08 08:15:41;;;;;;;;;;;18.30;99.90;;;;;;4950139;28;19915;-83
2022/09/08 08:18:28;;;;;;;;;;;18.30;99.90;;;;;;4958001;28;20399;-83
2022/09/08 08:21:08;;;;;;;;;;;18.40;99.90;;;;;;4957524;28;19938;-83
2022/09/08 08:23:51;;;;;;;;;;;18.30;99.90;;;;;;4950381;28;19957;-85
2022/09/08 08:26:36;;;;;;;;;;;18.30;99.90;;;;;;4960028;28;19914;-84
2022/09/08 08:29:12;;;;;;;;;;;18.30;99.90;;;;;;4956815;28;19914;-81
2022/09/08 08:31:42;;;;;;;;;;;18.30;99.90;;;;;;4958713;28;19914;-84
2022/09/08 08:34:21;;;;;;;;;;;18.30;99.90;;;;;;4975813;28;19937;-81
2022/09/08 08:36:48;;;;;;;;;;;18.40;99.90;;;;;;4942951;28;19985;-84
2022/09/08 08:39:18;;;;;;;;;;;18.50;99.90;;;;;;4946769;28;19914;-85
2022/09/08 08:41:50;;;;;;;;;;;18.50;99.90;;;;;;4929452;28;19914;-84
2022/09/08 08:44:21;;;;;;;;;;;18.60;99.90;;;;;;4961580;28;20272;-83
2022/09/08 08:47:06;;;;;;;;;;;18.60;99.90;;;;;;4960132;28;19953;-83
2022/09/08 08:49:58;;;;;;;;;;;18.50;99.90;;;;;;4937962;28;19914;-82
2022/09/08 08:52:23;;;;;;;;;;;18.70;99.90;;;;;;4952059;28;20274;-84
2022/09/08 08:54:52;;;;;;;;;;;18.70;99.90;;;;;;4953171;28;19910;-85
2022/09/08 08:57:20;;;;;;;;;;;19.00;99.90;;;;;;4957660;28;19914;-83
2022/09/08 08:59:56;;;;;;;;;;;18.90;99.90;;;;;;4962032;28;20002;-84
2022/09/08 09:02:31;;;;;;;;;;;19.20;99.90;;;;;;4960628;29;19910;-81
2022/09/08 09:05:09;;;;;;;;;;;19.20;99.90;;;;;;4957346;28;19910;-84
2022/09/08 09:07:58;;;;;;;;;;;19.20;99.90;;;;;;4963196;28;20000;-85
2022/09/08 09:10:58;;;;;;;;;;;19.20;99.90;;;;;;4952365;28;19918;-82
2022/09/08 09:13:32;;;;;;;;;;;19.20;99.90;;;;;;4912472;29;20089;-84
2022/09/08 09:16:10;;;;;;;;;;;19.20;99.90;;;;;;4938668;28;19926;-83
2022/09/08 09:18:47;;;;;;;;;;;19.30;99.90;;;;;;4949601;28;19914;-83
2022/09/08 09:21:19;;;;;;;;;;;19.30;99.90;;;;;;4953277;28;19911;-83
2022/09/08 09:23:58;;;;;;;;;;;19.30;99.90;;;;;;4969811;28;19921;-81
2022/09/08 09:26:25;;;;;;;;;;;19.20;99.90;;;;;;4933842;28;19937;-82
2022/09/08 09:29:13;;;;;;;;;;;19.20;99.90;;;;;;4959403;28;20017;-82
2022/09/08 09:31:44;;;;;;;;;;;19.40;99.90;;;;;;4957433;28;19919;-82
2022/09/08 09:34:29;;;;;;;;;;;19.40;99.90;;;;;;4941891;28;19910;-84
2022/09/08 09:37:13;;;;;;;;;;;19.50;99.90;;;;;;4941283;28;19919;-83
2022/09/08 09:40:01;;;;;;;;;;;19.50;99.90;;;;;;4942722;28;19914;-86
2022/09/08 09:42:55;;;;;;;;;;;19.60;99.90;;;;;;4959651;28;19965;-84
2022/09/08 09:45:46;;;;;;;;;;;19.60;99.90;;;;;;4958594;28;19982;-83
2022/09/08 09:48:11;;;;;;;;;;;19.50;99.90;;;;;;4962792;28;20363;-85
2022/09/08 09:50:36;;;;;;;;;;;19.50;99.90;;;;;;4972320;28;19966;-83
2022/09/08 09:53:09;;;;;;;;;;;19.40;99.90;;;;;;4952600;28;19956;-82
2022/09/08 09:55:43;;;;;;;;;;;19.30;99.90;;;;;;4961776;28;19927;-80
2022/09/08 09:58:09;;;;;;;;;;;19.50;99.90;;;;;;4968832;28;19914;-81
2022/09/08 10:00:50;;;;;;;;;;;19.40;99.90;;;;;;4950020;28;19981;-82
2022/09/08 10:03:28;;;;;;;;;;;19.70;99.90;;;;;;4965321;28;20269;-79
2022/09/08 10:06:13;;;;;;;;;;;20.00;99.90;;;;;;4949352;28;19921;-83
2022/09/08 10:08:42;;;;;;;;;;;20.20;99.90;;;;;;4968922;28;20262;-82
2022/09/08 10:11:23;;;;;;;;;;;20.20;99.90;;;;;;4975832;28;19922;-82
2022/09/08 10:14:08;;;;;;;;;;;20.40;99.90;;;;;;4965533;28;19910;-83
2022/09/08 10:16:39;;;;;;;;;;;20.50;99.90;;;;;;4959661;28;19910;-81
2022/09/08 10:19:14;;;;;;;;;;;20.60;99.90;;;;;;4964710;28;19922;-83
2022/09/08 10:21:42;;;;;;;;;;;20.90;99.90;;;;;;4962950;28;19984;-83
2022/09/08 10:24:08;;;;;;;;;;;21.10;99.90;;;;;;4967623;28;19957;-83
2022/09/08 10:26:56;;;;;;;;;;;20.90;99.90;;;;;;4960108;28;19961;-84
2022/09/08 10:29:33;;;;;;;;;;;20.80;99.90;;;;;;4963989;29;19906;-81
2022/09/08 10:31:58;;;;;;;;;;;20.70;99.90;;;;;;4947364;28;19922;-80
2022/09/08 10:34:49;;;;;;;;;;;20.70;99.90;;;;;;4946597;28;19911;-83
2022/09/08 10:37:15;;;;;;;;;;;;;;;;;;4959210;28;19922;-83
2022/09/08 10:39:42;;;;;;;;;;;21.00;99.90;;;;;;4942112;29;19914;-80
2022/09/08 10:42:26;;;;;;;;;;;21.20;99.90;;;;;;4949845;28;20033;-82
2022/09/08 10:44:54;;;;;;;;;;;21.30;99.90;;;;;;4974503;28;19957;-82
2022/09/08 10:47:40;;;;;;;;;;;21.20;99.90;;;;;;4966497;28;20375;-81
2022/09/08 10:50:07;;;;;;;;;;;21.40;99.90;;;;;;4950913;28;19910;-86
2022/09/08 10:52:32;;;;;;;;;;;21.60;99.90;;;;;;4958727;28;19914;-84
2022/09/08 10:55:06;;;;;;;;;;;21.50;99.90;;;;;;4959577;28;19921;-83
2022/09/08 10:57:41;;;;;;;;;;;21.70;99.90;;;;;;4929921;29;20028;-82
2022/09/08 11:00:09;;;;;;;;;;;21.50;99.90;;;;;;4947676;28;19936;-80
2022/09/08 11:02:35;;;;;;;;;;;21.30;99.90;;;;;;4961875;28;20009;-84
2022/09/08 11:05:03;;;;;;;;;;;21.20;99.90;;;;;;4965802;28;20009;-80
2022/09/08 11:07:32;;;;;;;;;;;21.20;99.90;;;;;;4962460;28;19932;-81
2022/09/08 11:09:58;;;;;;;;;;;21.20;99.90;;;;;;4958343;28;19914;-83
2022/09/08 11:12:23;;;;;;;;;;;21.00;99.90;;;;;;4963613;28;19915;-82
2022/09/08 11:15:04;;;;;;;;;;;20.90;99.90;;;;;;4945626;28;19942;-82
2022/09/08 11:17:36;;;;;;;;;;;20.90;99.90;;;;;;4957090;28;19925;-83
2022/09/08 11:20:10;;;;;;;;;;;20.80;99.90;;;;;;4953812;28;19954;-82
2022/09/08 11:22:41;;;;;;;;;;;20.70;99.90;;;;;;4963973;28;19914;-84
2022/09/08 11:25:17;;;;;;;;;;;21.00;99.90;;;;;;4949595;28;19911;-84
2022/09/08 11:28:02;;;;;;;;;;;21.30;99.90;;;;;;4947011;28;19914;-82
2022/09/08 11:30:40;;;;;;;;;;;21.70;99.90;;;;;;4941803;29;19917;-80
2022/09/08 11:33:09;;;;;;;;;;;21.90;99.90;;;;;;4961351;28;19922;-82
2022/09/08 11:35:35;;;;;;;;;;;21.90;99.90;;;;;;4966566;28;19914;-84
2022/09/08 11:38:10;;;;;;;;;;;22.00;99.90;;;;;;4941481;28;19924;-81
2022/09/08 11:40:54;;;;;;;;;;;22.00;99.90;;;;;;4955619;28;19914;-82
2022/09/08 11:43:19;;;;;;;;;;;22.00;99.90;;;;;;4959359;28;19918;-80
2022/09/08 11:46:03;;;;;;;;;;;22.00;99.90;;;;;;4960603;28;20325;-81
2022/09/08 11:48:44;;;;;;;;;;;21.80;99.90;;;;;;4958661;28;19919;-80
2022/09/08 11:51:12;;;;;;;;;;;21.90;99.90;;;;;;4969938;28;19936;-81
2022/09/08 11:53:52;;;;;;;;;;;22.10;99.90;;;;;;4964357;28;20257;-80
2022/09/08 11:56:45;;;;;;;;;;;22.40;99.90;;;;;;4965680;28;19911;-81
2022/09/08 11:59:20;;;;;;;;;;;22.70;99.90;;;;;;4963677;28;19963;-82
2022/09/08 12:01:56;;;;;;;;;;;22.80;99.90;;;;;;4970220;28;19917;-84
2022/09/08 12:04:32;;;;;;;;;;;23.00;98.50;;;;;;4951276;28;19918;-82
2022/09/08 12:07:03;;;;;;;;;;;22.80;97.80;;;;;;4948448;29;19945;-86
2022/09/08 12:09:41;;;;;;;;;;;22.60;98.00;;;;;;4970406;28;19911;-81
2022/09/08 12:12:16;;;;;;;;;;;22.70;98.40;;;;;;4969462;28;19914;-82
2022/09/08 12:14:44;;;;;;;;;;;22.80;98.20;;;;;;4972205;28;19912;-84
2022/09/08 12:17:10;;;;;;;;;;;23.00;97.90;;;;;;4962193;28;19952;-81
2022/09/08 12:19:35;;;;;;;;;;;23.10;96.90;;;;;;4956712;28;19914;-82
2022/09/08 12:22:27;;;;;;;;;;;23.10;96.90;;;;;;4972833;28;20005;-83
2022/09/08 12:24:58;;;;;;;;;;;23.40;96.10;;;;;;4950140;28;19910;-82
2022/09/08 12:27:24;;;;;;;;;;;23.60;96.30;;;;;;4967527;28;19914;-82
2022/09/08 12:29:55;;;;;;;;;;;23.80;95.80;;;;;;4946777;28;20052;-81
2022/09/08 12:32:41;;;;;;;;;;;23.80;95.80;;;;;;4971158;28;19910;-81
2022/09/08 12:35:25;;;;;;;;;;;23.90;95.80;;;;;;4957170;28;20067;-81
2022/09/08 12:38:10;;;;;;;;;;;23.60;96.00;;;;;;4944996;28;19925;-82
2022/09/08 12:40:51;;;;;;;;;;;23.20;96.30;;;;;;4972819;28;19918;-83
2022/09/08 12:43:20;;;;;;;;;;;23.10;96.00;;;;;;4946441;28;20005;-81
2022/09/08 12:45:49;;;;;;;;;;;23.00;96.20;;;;;;4961851;28;19949;-80
2022/09/08 12:48:20;;;;;;;;;;;22.80;96.40;;;;;;4963064;28;19914;-82
2022/09/08 12:50:49;;;;;;;;;;;22.80;96.40;;;;;;4957798;28;19914;-82
2022/09/08 12:53:33;;;;;;;;;;;22.30;97.20;;;;;;4958969;28;19915;-81
2022/09/08 12:56:08;;;;;;;;;;;22.40;97.50;;;;;;4963861;28;19938;-80
2022/09/08 12:58:34;;;;;;;;;;;;;;;;;;4959459;28;19922;-79
2022/09/08 13:01:05;;;;;;;;;;;22.60;97.40;;;;;;4940563;28;19914;-79
2022/09/08 13:03:35;;;;;;;;;;;22.90;97.30;;;;;;4958521;28;19968;-83
2022/09/08 13:06:13;;;;;;;;;;;23.00;96.70;;;;;;4957233;28;19914;-82
2022/09/08 13:08:48;;;;;;;;;;;22.90;96.20;;;;;;4960124;28;20284;-81
2022/09/08 13:11:25;;;;;;;;;;;22.80;95.60;;;;;;4940923;29;19917;-82
2022/09/08 13:13:54;;;;;;;;;;;22.60;96.50;;;;;;4962968;28;19911;-81
2022/09/08 13:16:26;;;;;;;;;;;22.40;96.90;;;;;;4939232;28;19966;-78
2022/09/08 13:19:10;;;;;;;;;;;22.30;97.20;;;;;;4965130;28;20016;-80
2022/09/08 13:21:39;;;;;;;;;;;22.00;97.40;;;;;;4944949;28;19906;-81
2022/09/08 13:24:04;;;;;;;;;;;21.90;97.60;;;;;;4958049;28;20376;-81
2022/09/08 13:26:30;;;;;;;;;;;21.70;98.00;;;;;;4938920;28;19981;-80
2022/09/08 13:28:55;;;;;;;;;;;21.50;98.80;;;;;;4951299;28;19925;-85
2022/09/08 13:31:50;;;;;;;;;;;21.50;98.90;;;;;;4948602;28;19917;-81
2022/09/08 13:34:31;;;;;;;;;;;21.50;99.40;;;;;;4957947;28;19968;-80
2022/09/08 13:37:02;;;;;;;;;;;21.50;99.60;;;;;;4958315;28;19977;-79
2022/09/08 13:39:51;;;;;;;;;;;21.50;99.50;;;;;;4961275;28;20005;-82
2022/09/08 13:42:28;;;;;;;;;;;21.50;99.10;;;;;;4940495;29;19910;-82
2022/09/08 13:44:57;;;;;;;;;;;21.30;99.20;;;;;;4958053;28;19974;-84
2022/09/08 13:47:34;;;;;;;;;;;21.20;99.30;;;;;;4963821;29;19914;-85
2022/09/08 13:50:06;;;;;;;;;;;21.00;99.90;;;;;;4961836;28;20074;-86
2022/09/08 13:52:35;;;;;;;;;;;20.80;99.90;;;;;;4970858;28;19967;-84
2022/09/08 13:55:20;;;;;;;;;;;20.60;99.90;;;;;;4960826;28;19911;-85
2022/09/08 13:57:55;;;;;;;;;;;20.60;99.90;;;;;;4962623;28;19930;-85
2022/09/08 14:00:23;;;;;;;;;;;20.50;99.90;;;;;;4972035;28;19922;-84
2022/09/08 14:02:54;;;;;;;;;;;20.60;99.90;;;;;;4968164;28;19926;-81
2022/09/08 14:05:23;;;;;;;;;;;20.60;99.90;;;;;;4957099;28;19938;-79
2022/09/08 14:07:57;;;;;;;;;;;21.00;99.90;;;;;;4954245;28;19938;-79
2022/09/08 14:10:43;;;;;;;;;;;21.10;99.90;;;;;;4946786;28;19922;-80
2022/09/08 14:13:15;;;;;;;;;;;21.40;99.90;;;;;;4953041;28;19910;-82
2022/09/08 14:15:45;;;;;;;;;;;21.50;99.90;;;;;;4953161;28;19910;-79
2022/09/08 14:18:11;;;;;;;;;;;21.70;99.90;;;;;;4943963;28;19918;-79
2022/09/08 14:20:40;;;;;;;;;;;21.80;99.90;;;;;;4958247;28;19953;-82
2022/09/08 14:23:20;;;;;;;;;;;21.90;99.90;;;;;;4961583;28;19950;-85
2022/09/08 14:25:46;;;;;;;;;;;21.90;99.90;;;;;;4948756;28;20356;-82
2022/09/08 14:28:16;;;;;;;;;;;21.60;99.90;;;;;;4943992;28;19914;-81
2022/09/08 14:30:42;;;;;;;;;;;21.50;99.90;;;;;;4966117;28;19925;-82
2022/09/08 14:33:25;;;;;;;;;;;21.40;99.90;;;;;;4962729;28;19918;-81
2022/09/08 14:35:54;;;;;;;;;;;21.30;99.90;;;;;;4967009;28;20446;-82
2022/09/08 14:38:31;;;;;;;;;;;21.20;99.90;;;;;;4962872;28;19974;-84
2022/09/08 14:41:16;;;;;;;;;;;21.00;99.90;;;;;;4944181;28;19910;-83
2022/09/08 14:43:48;;;;;;;;;;;21.00;99.90;;;;;;4967167;28;19990;-82
2022/09/08 14:46:23;;;;;;;;;;;20.90;99.90;;;;;;4964124;28;19918;-81
2022/09/08 14:48:55;;;;;;;;;;;20.90;99.90;;;;;;4968016;28;20404;-80